sensor_id;sensor_type;location;lat;lon;timestamp;P1;durP1;ratioP1;P2;durP2;ratioP2
70320;SDS011;61127;55.826;37.046;2023-11-22T00:01:11;5.72;;;2.63;;
70320;SDS011;61127;55.826;37.046;2023-11-22T00:03:37;7.03;;;2.38;;
70320;SDS011;61127;55.826;37.046;2023-11-22T00:06:03;8.13;;;2.83;;
70320;SDS011;61127;55.826;37.046;2023-11-22T00:08:29;8.07;;;2.90;;
70320;SDS011;61127;55.826;37.046;2023-11-22T00:10:55;8.43;;;3.00;;
70320;SDS011;61127;55.826;37.046;2023-11-22T00:13:21;8.57;;;3.00;;
70320;SDS011;61127;55.826;37.046;2023-11-22T00:15:47;8.13;;;2.63;;
70320;SDS011;61127;55.826;37.046;2023-11-22T00:18:12;7.82;;;3.15;;
70320;SDS011;61127;55.826;37.046;2023-11-22T00:20:38;9.60;;;2.88;;
70320;SDS011;61127;55.826;37.046;2023-11-22T00:23:05;8.40;;;3.30;;
70320;SDS011;61127;55.826;37.046;2023-11-22T00:25:31;8.52;;;3.10;;
70320;SDS011;61127;55.826;37.046;2023-11-22T00:27:58;7.97;;;2.90;;
70320;SDS011;61127;55.826;37.046;2023-11-22T00:30:24;6.80;;;3.33;;
70320;SDS011;61127;55.826;37.046;2023-11-22T00:32:52;11.80;;;3.55;;
70320;SDS011;61127;55.826;37.046;2023-11-22T00:35:18;7.55;;;2.90;;
70320;SDS011;61127;55.826;37.046;2023-11-22T00:37:44;6.00;;;2.70;;
70320;SDS011;61127;55.826;37.046;2023-11-22T00:40:10;8.38;;;3.50;;
70320;SDS011;61127;55.826;37.046;2023-11-22T00:42:39;9.07;;;2.97;;
70320;SDS011;61127;55.826;37.046;2023-11-22T00:45:08;6.47;;;2.55;;
70320;SDS011;61127;55.826;37.046;2023-11-22T00:47:36;8.38;;;2.90;;
70320;SDS011;61127;55.826;37.046;2023-11-22T00:50:02;8.57;;;2.88;;
70320;SDS011;61127;55.826;37.046;2023-11-22T00:52:31;9.83;;;3.23;;
70320;SDS011;61127;55.826;37.046;2023-11-22T00:54:57;8.15;;;2.67;;
70320;SDS011;61127;55.826;37.046;2023-11-22T00:57:23;7.30;;;2.90;;
70320;SDS011;61127;55.826;37.046;2023-11-22T00:59:49;10.37;;;3.30;;
70320;SDS011;61127;55.826;37.046;2023-11-22T01:02:15;8.02;;;3.33;;
70320;SDS011;61127;55.826;37.046;2023-11-22T01:04:41;9.60;;;3.55;;
70320;SDS011;61127;55.826;37.046;2023-11-22T01:07:07;7.80;;;3.00;;
70320;SDS011;61127;55.826;37.046;2023-11-22T01:09:33;8.57;;;3.55;;
70320;SDS011;61127;55.826;37.046;2023-11-22T01:11:59;8.13;;;3.47;;
70320;SDS011;61127;55.826;37.046;2023-11-22T01:14:25;8.37;;;2.47;;
70320;SDS011;61127;55.826;37.046;2023-11-22T01:16:55;7.88;;;3.10;;
70320;SDS011;61127;55.826;37.046;2023-11-22T01:19:21;12.15;;;4.50;;
70320;SDS011;61127;55.826;37.046;2023-11-22T01:21:47;12.68;;;3.83;;
70320;SDS011;61127;55.826;37.046;2023-11-22T01:24:13;11.23;;;4.72;;
70320;SDS011;61127;55.826;37.046;2023-11-22T01:26:39;13.00;;;4.77;;
70320;SDS011;61127;55.826;37.046;2023-11-22T01:29:05;12.85;;;4.32;;
70320;SDS011;61127;55.826;37.046;2023-11-22T01:31:31;6.45;;;2.70;;
70320;SDS011;61127;55.826;37.046;2023-11-22T01:33:58;13.45;;;4.30;;
70320;SDS011;61127;55.826;37.046;2023-11-22T01:36:24;11.13;;;3.93;;
70320;SDS011;61127;55.826;37.046;2023-11-22T01:38:51;9.68;;;3.50;;
70320;SDS011;61127;55.826;37.046;2023-11-22T01:41:17;10.95;;;4.40;;
70320;SDS011;61127;55.826;37.046;2023-11-22T01:43:43;11.90;;;4.38;;
70320;SDS011;61127;55.826;37.046;2023-11-22T01:46:09;15.55;;;4.40;;
70320;SDS011;61127;55.826;37.046;2023-11-22T01:48:36;13.68;;;4.40;;
70320;SDS011;61127;55.826;37.046;2023-11-22T01:51:04;9.05;;;3.88;;
70320;SDS011;61127;55.826;37.046;2023-11-22T01:53:31;10.17;;;3.87;;
70320;SDS011;61127;55.826;37.046;2023-11-22T01:55:57;7.05;;;3.17;;
70320;SDS011;61127;55.826;37.046;2023-11-22T01:58:23;9.63;;;3.03;;
70320;SDS011;61127;55.826;37.046;2023-11-22T02:00:50;9.60;;;3.17;;
70320;SDS011;61127;55.826;37.046;2023-11-22T02:03:16;8.35;;;3.45;;
70320;SDS011;61127;55.826;37.046;2023-11-22T02:05:42;8.47;;;2.90;;
70320;SDS011;61127;55.826;37.046;2023-11-22T02:08:11;9.23;;;3.28;;
70320;SDS011;61127;55.826;37.046;2023-11-22T02:10:37;5.40;;;2.53;;
70320;SDS011;61127;55.826;37.046;2023-11-22T02:13:06;9.50;;;2.60;;
70320;SDS011;61127;55.826;37.046;2023-11-22T02:15:36;8.60;;;2.40;;
70320;SDS011;61127;55.826;37.046;2023-11-22T02:18:02;6.90;;;3.08;;
70320;SDS011;61127;55.826;37.046;2023-11-22T02:20:29;8.25;;;3.30;;
70320;SDS011;61127;55.826;37.046;2023-11-22T02:22:55;8.35;;;2.80;;
70320;SDS011;61127;55.826;37.046;2023-11-22T02:25:21;8.77;;;3.20;;
70320;SDS011;61127;55.826;37.046;2023-11-22T02:27:46;7.60;;;3.03;;
70320;SDS011;61127;55.826;37.046;2023-11-22T02:30:13;8.38;;;3.15;;
70320;SDS011;61127;55.826;37.046;2023-11-22T02:32:39;8.37;;;2.80;;
70320;SDS011;61127;55.826;37.046;2023-11-22T02:35:04;6.30;;;2.88;;
70320;SDS011;61127;55.826;37.046;2023-11-22T02:37:36;8.63;;;3.05;;
70320;SDS011;61127;55.826;37.046;2023-11-22T02:40:05;7.70;;;3.40;;
70320;SDS011;61127;55.826;37.046;2023-11-22T02:42:33;8.00;;;2.55;;
70320;SDS011;61127;55.826;37.046;2023-11-22T02:45:00;6.75;;;2.20;;
70320;SDS011;61127;55.826;37.046;2023-11-22T02:47:26;7.43;;;2.63;;
70320;SDS011;61127;55.826;37.046;2023-11-22T02:49:51;6.85;;;2.60;;
70320;SDS011;61127;55.826;37.046;2023-11-22T02:52:17;7.75;;;2.50;;
70320;SDS011;61127;55.826;37.046;2023-11-22T02:54:43;8.13;;;2.80;;
70320;SDS011;61127;55.826;37.046;2023-11-22T02:57:11;6.88;;;2.28;;
70320;SDS011;61127;55.826;37.046;2023-11-22T02:59:40;9.88;;;2.38;;
70320;SDS011;61127;55.826;37.046;2023-11-22T03:02:07;9.45;;;2.47;;
70320;SDS011;61127;55.826;37.046;2023-11-22T03:04:32;8.80;;;2.70;;
70320;SDS011;61127;55.826;37.046;2023-11-22T03:06:59;8.88;;;2.80;;
70320;SDS011;61127;55.826;37.046;2023-11-22T03:09:25;10.50;;;3.30;;
70320;SDS011;61127;55.826;37.046;2023-11-22T03:11:54;11.63;;;3.90;;
70320;SDS011;61127;55.826;37.046;2023-11-22T03:14:20;8.73;;;2.65;;
70320;SDS011;61127;55.826;37.046;2023-11-22T03:16:47;7.10;;;2.30;;
70320;SDS011;61127;55.826;37.046;2023-11-22T03:19:14;8.35;;;2.50;;
70320;SDS011;61127;55.826;37.046;2023-11-22T03:21:40;10.37;;;3.73;;
70320;SDS011;61127;55.826;37.046;2023-11-22T03:24:07;8.30;;;3.20;;
70320;SDS011;61127;55.826;37.046;2023-11-22T03:26:34;8.90;;;3.30;;
70320;SDS011;61127;55.826;37.046;2023-11-22T03:29:00;10.60;;;3.92;;
70320;SDS011;61127;55.826;37.046;2023-11-22T03:31:27;10.23;;;3.80;;
70320;SDS011;61127;55.826;37.046;2023-11-22T03:33:53;9.27;;;3.20;;
70320;SDS011;61127;55.826;37.046;2023-11-22T03:36:20;10.23;;;3.80;;
70320;SDS011;61127;55.826;37.046;2023-11-22T03:38:46;14.48;;;4.22;;
70320;SDS011;61127;55.826;37.046;2023-11-22T03:41:12;9.82;;;3.85;;
70320;SDS011;61127;55.826;37.046;2023-11-22T03:43:38;9.70;;;3.73;;
70320;SDS011;61127;55.826;37.046;2023-11-22T03:46:03;10.60;;;3.75;;
70320;SDS011;61127;55.826;37.046;2023-11-22T03:48:30;9.63;;;3.73;;
70320;SDS011;61127;55.826;37.046;2023-11-22T03:51:00;11.80;;;3.72;;
70320;SDS011;61127;55.826;37.046;2023-11-22T03:53:26;13.77;;;3.97;;
70320;SDS011;61127;55.826;37.046;2023-11-22T03:55:52;12.77;;;3.95;;
70320;SDS011;61127;55.826;37.046;2023-11-22T03:58:18;12.60;;;4.47;;
70320;SDS011;61127;55.826;37.046;2023-11-22T04:00:44;11.85;;;4.00;;
70320;SDS011;61127;55.826;37.046;2023-11-22T04:03:10;11.98;;;4.15;;
70320;SDS011;61127;55.826;37.046;2023-11-22T04:05:35;12.77;;;3.57;;
70320;SDS011;61127;55.826;37.046;2023-11-22T04:08:01;10.68;;;3.80;;
70320;SDS011;61127;55.826;37.046;2023-11-22T04:10:27;11.10;;;4.32;;
70320;SDS011;61127;55.826;37.046;2023-11-22T04:12:52;9.88;;;3.25;;
70320;SDS011;61127;55.826;37.046;2023-11-22T04:15:18;12.17;;;3.93;;
70320;SDS011;61127;55.826;37.046;2023-11-22T04:17:44;10.48;;;4.38;;
70320;SDS011;61127;55.826;37.046;2023-11-22T04:20:10;16.35;;;5.05;;
70320;SDS011;61127;55.826;37.046;2023-11-22T04:22:40;11.65;;;4.43;;
70320;SDS011;61127;55.826;37.046;2023-11-22T04:25:06;13.30;;;4.63;;
70320;SDS011;61127;55.826;37.046;2023-11-22T04:27:34;17.35;;;5.20;;
70320;SDS011;61127;55.826;37.046;2023-11-22T04:30:00;14.80;;;4.77;;
70320;SDS011;61127;55.826;37.046;2023-11-22T04:32:26;15.35;;;4.18;;
70320;SDS011;61127;55.826;37.046;2023-11-22T04:34:51;13.70;;;5.18;;
70320;SDS011;61127;55.826;37.046;2023-11-22T04:37:17;13.70;;;4.90;;
70320;SDS011;61127;55.826;37.046;2023-11-22T04:39:43;15.23;;;4.95;;
70320;SDS011;61127;55.826;37.046;2023-11-22T04:42:09;14.73;;;5.00;;
70320;SDS011;61127;55.826;37.046;2023-11-22T04:44:35;12.73;;;4.20;;
70320;SDS011;61127;55.826;37.046;2023-11-22T04:47:01;13.15;;;4.55;;
70320;SDS011;61127;55.826;37.046;2023-11-22T04:49:27;13.65;;;4.50;;
70320;SDS011;61127;55.826;37.046;2023-11-22T04:51:53;12.93;;;4.93;;
70320;SDS011;61127;55.826;37.046;2023-11-22T04:54:18;14.48;;;4.53;;
70320;SDS011;61127;55.826;37.046;2023-11-22T04:56:44;12.53;;;4.43;;
70320;SDS011;61127;55.826;37.046;2023-11-22T04:59:10;11.80;;;4.35;;
70320;SDS011;61127;55.826;37.046;2023-11-22T05:01:36;11.80;;;3.83;;
70320;SDS011;61127;55.826;37.046;2023-11-22T05:04:01;14.50;;;5.20;;
70320;SDS011;61127;55.826;37.046;2023-11-22T05:06:27;12.77;;;4.70;;
70320;SDS011;61127;55.826;37.046;2023-11-22T05:08:54;15.32;;;4.50;;
70320;SDS011;61127;55.826;37.046;2023-11-22T05:11:21;11.00;;;4.03;;
70320;SDS011;61127;55.826;37.046;2023-11-22T05:13:46;13.68;;;4.22;;
70320;SDS011;61127;55.826;37.046;2023-11-22T05:16:12;12.33;;;4.93;;
70320;SDS011;61127;55.826;37.046;2023-11-22T05:18:38;11.50;;;4.57;;
70320;SDS011;61127;55.826;37.046;2023-11-22T05:21:04;12.20;;;4.60;;
70320;SDS011;61127;55.826;37.046;2023-11-22T05:23:30;14.03;;;4.50;;
70320;SDS011;61127;55.826;37.046;2023-11-22T05:25:57;10.80;;;4.20;;
70320;SDS011;61127;55.826;37.046;2023-11-22T05:28:25;12.93;;;4.35;;
70320;SDS011;61127;55.826;37.046;2023-11-22T05:30:50;12.03;;;4.47;;
70320;SDS011;61127;55.826;37.046;2023-11-22T05:33:16;11.20;;;4.35;;
70320;SDS011;61127;55.826;37.046;2023-11-22T05:35:42;11.13;;;3.53;;
70320;SDS011;61127;55.826;37.046;2023-11-22T05:38:08;10.90;;;4.65;;
70320;SDS011;61127;55.826;37.046;2023-11-22T05:40:35;14.02;;;4.75;;
70320;SDS011;61127;55.826;37.046;2023-11-22T05:43:01;12.17;;;4.20;;
70320;SDS011;61127;55.826;37.046;2023-11-22T05:45:27;11.50;;;3.92;;
70320;SDS011;61127;55.826;37.046;2023-11-22T05:47:52;11.10;;;3.97;;
70320;SDS011;61127;55.826;37.046;2023-11-22T05:50:18;10.18;;;4.15;;
70320;SDS011;61127;55.826;37.046;2023-11-22T05:52:44;11.10;;;3.87;;
70320;SDS011;61127;55.826;37.046;2023-11-22T05:55:11;12.85;;;4.20;;
70320;SDS011;61127;55.826;37.046;2023-11-22T05:57:40;11.93;;;4.10;;
70320;SDS011;61127;55.826;37.046;2023-11-22T06:00:06;12.55;;;4.65;;
70320;SDS011;61127;55.826;37.046;2023-11-22T06:02:32;13.17;;;4.80;;
70320;SDS011;61127;55.826;37.046;2023-11-22T06:04:58;18.02;;;5.68;;
70320;SDS011;61127;55.826;37.046;2023-11-22T06:07:23;13.20;;;4.53;;
70320;SDS011;61127;55.826;37.046;2023-11-22T06:09:49;17.25;;;4.72;;
70320;SDS011;61127;55.826;37.046;2023-11-22T06:12:15;11.57;;;4.07;;
70320;SDS011;61127;55.826;37.046;2023-11-22T06:14:40;11.40;;;4.05;;
70320;SDS011;61127;55.826;37.046;2023-11-22T06:17:07;10.43;;;4.10;;
70320;SDS011;61127;55.826;37.046;2023-11-22T06:19:33;12.87;;;3.60;;
70320;SDS011;61127;55.826;37.046;2023-11-22T06:21:59;12.38;;;4.13;;
70320;SDS011;61127;55.826;37.046;2023-11-22T06:24:27;10.38;;;4.00;;
70320;SDS011;61127;55.826;37.046;2023-11-22T06:26:53;13.48;;;4.25;;
70320;SDS011;61127;55.826;37.046;2023-11-22T06:29:18;10.50;;;3.77;;
70320;SDS011;61127;55.826;37.046;2023-11-22T06:31:48;14.02;;;3.92;;
70320;SDS011;61127;55.826;37.046;2023-11-22T06:34:14;9.75;;;3.42;;
70320;SDS011;61127;55.826;37.046;2023-11-22T06:36:40;8.80;;;3.33;;
70320;SDS011;61127;55.826;37.046;2023-11-22T06:39:06;16.55;;;3.60;;
70320;SDS011;61127;55.826;37.046;2023-11-22T06:41:34;10.07;;;3.20;;
70320;SDS011;61127;55.826;37.046;2023-11-22T06:44:00;9.27;;;3.28;;
70320;SDS011;61127;55.826;37.046;2023-11-22T06:46:25;9.60;;;3.40;;
70320;SDS011;61127;55.826;37.046;2023-11-22T06:48:51;12.10;;;3.70;;
70320;SDS011;61127;55.826;37.046;2023-11-22T06:51:17;13.37;;;3.30;;
70320;SDS011;61127;55.826;37.046;2023-11-22T06:53:44;12.40;;;3.42;;
70320;SDS011;61127;55.826;37.046;2023-11-22T06:56:10;9.00;;;3.33;;
70320;SDS011;61127;55.826;37.046;2023-11-22T06:58:36;11.57;;;3.30;;
70320;SDS011;61127;55.826;37.046;2023-11-22T07:01:02;9.07;;;3.10;;
70320;SDS011;61127;55.826;37.046;2023-11-22T07:03:28;8.00;;;2.45;;
70320;SDS011;61127;55.826;37.046;2023-11-22T07:05:53;10.23;;;3.10;;
70320;SDS011;61127;55.826;37.046;2023-11-22T07:08:19;8.10;;;3.03;;
70320;SDS011;61127;55.826;37.046;2023-11-22T07:10:45;8.63;;;3.20;;
70320;SDS011;61127;55.826;37.046;2023-11-22T07:13:11;8.05;;;2.88;;
70320;SDS011;61127;55.826;37.046;2023-11-22T07:15:38;4.80;;;2.30;;
70320;SDS011;61127;55.826;37.046;2023-11-22T07:18:04;6.33;;;2.63;;
70320;SDS011;61127;55.826;37.046;2023-11-22T07:20:30;9.45;;;2.70;;
70320;SDS011;61127;55.826;37.046;2023-11-22T07:22:56;10.07;;;2.63;;
70320;SDS011;61127;55.826;37.046;2023-11-22T07:25:23;8.60;;;2.38;;
70320;SDS011;61127;55.826;37.046;2023-11-22T07:27:51;8.25;;;2.28;;
70320;SDS011;61127;55.826;37.046;2023-11-22T07:30:16;6.17;;;2.27;;
70320;SDS011;61127;55.826;37.046;2023-11-22T07:32:44;5.47;;;2.10;;
70320;SDS011;61127;55.826;37.046;2023-11-22T07:35:10;5.57;;;2.00;;
70320;SDS011;61127;55.826;37.046;2023-11-22T07:37:41;5.97;;;1.63;;
70320;SDS011;61127;55.826;37.046;2023-11-22T07:40:10;5.63;;;2.08;;
70320;SDS011;61127;55.826;37.046;2023-11-22T07:42:39;4.68;;;1.40;;
70320;SDS011;61127;55.826;37.046;2023-11-22T07:45:04;5.10;;;1.70;;
70320;SDS011;61127;55.826;37.046;2023-11-22T07:47:31;4.32;;;1.65;;
70320;SDS011;61127;55.826;37.046;2023-11-22T07:49:56;5.03;;;1.60;;
70320;SDS011;61127;55.826;37.046;2023-11-22T07:52:22;3.85;;;1.55;;
70320;SDS011;61127;55.826;37.046;2023-11-22T07:54:52;3.53;;;1.67;;
70320;SDS011;61127;55.826;37.046;2023-11-22T07:57:18;3.58;;;1.33;;
70320;SDS011;61127;55.826;37.046;2023-11-22T07:59:45;5.20;;;1.77;;
70320;SDS011;61127;55.826;37.046;2023-11-22T08:02:13;3.55;;;1.15;;
70320;SDS011;61127;55.826;37.046;2023-11-22T08:04:38;4.47;;;1.33;;
70320;SDS011;61127;55.826;37.046;2023-11-22T08:07:05;4.65;;;1.70;;
70320;SDS011;61127;55.826;37.046;2023-11-22T08:09:32;3.95;;;1.67;;
70320;SDS011;61127;55.826;37.046;2023-11-22T08:11:58;5.15;;;1.60;;
70320;SDS011;61127;55.826;37.046;2023-11-22T08:14:27;3.20;;;1.27;;
70320;SDS011;61127;55.826;37.046;2023-11-22T08:16:56;2.22;;;1.10;;
70320;SDS011;61127;55.826;37.046;2023-11-22T08:19:22;4.63;;;1.52;;
70320;SDS011;61127;55.826;37.046;2023-11-22T08:21:49;3.67;;;1.37;;
70320;SDS011;61127;55.826;37.046;2023-11-22T08:24:15;3.28;;;1.40;;
70320;SDS011;61127;55.826;37.046;2023-11-22T08:26:40;3.08;;;1.20;;
70320;SDS011;61127;55.826;37.046;2023-11-22T08:29:06;4.73;;;1.43;;
70320;SDS011;61127;55.826;37.046;2023-11-22T08:31:36;2.92;;;1.20;;
70320;SDS011;61127;55.826;37.046;2023-11-22T08:34:02;4.67;;;1.53;;
70320;SDS011;61127;55.826;37.046;2023-11-22T08:36:32;3.55;;;1.48;;
70320;SDS011;61127;55.826;37.046;2023-11-22T08:39:00;5.03;;;1.30;;
70320;SDS011;61127;55.826;37.046;2023-11-22T08:41:27;5.03;;;1.52;;
70320;SDS011;61127;55.826;37.046;2023-11-22T08:43:55;6.07;;;1.33;;
70320;SDS011;61127;55.826;37.046;2023-11-22T08:46:20;3.07;;;0.90;;
70320;SDS011;61127;55.826;37.046;2023-11-22T08:48:47;3.00;;;1.17;;
70320;SDS011;61127;55.826;37.046;2023-11-22T08:51:13;2.78;;;1.08;;
70320;SDS011;61127;55.826;37.046;2023-11-22T08:53:38;4.50;;;1.50;;
70320;SDS011;61127;55.826;37.046;2023-11-22T08:56:04;3.10;;;1.42;;
70320;SDS011;61127;55.826;37.046;2023-11-22T08:58:31;3.93;;;1.50;;
70320;SDS011;61127;55.826;37.046;2023-11-22T09:00:57;4.22;;;1.48;;
70320;SDS011;61127;55.826;37.046;2023-11-22T09:03:26;4.93;;;1.33;;
70320;SDS011;61127;55.826;37.046;2023-11-22T09:05:52;3.47;;;1.27;;
70320;SDS011;61127;55.826;37.046;2023-11-22T09:08:19;4.30;;;1.20;;
70320;SDS011;61127;55.826;37.046;2023-11-22T09:10:46;7.30;;;1.20;;
70320;SDS011;61127;55.826;37.046;2023-11-22T09:13:12;1.85;;;0.80;;
70320;SDS011;61127;55.826;37.046;2023-11-22T09:15:42;2.40;;;1.03;;
70320;SDS011;61127;55.826;37.046;2023-11-22T09:18:10;3.03;;;1.20;;
70320;SDS011;61127;55.826;37.046;2023-11-22T09:20:38;2.92;;;1.10;;
70320;SDS011;61127;55.826;37.046;2023-11-22T09:23:03;4.13;;;1.30;;
70320;SDS011;61127;55.826;37.046;2023-11-22T09:25:30;4.20;;;1.10;;
70320;SDS011;61127;55.826;37.046;2023-11-22T09:28:00;3.83;;;1.00;;
70320;SDS011;61127;55.826;37.046;2023-11-22T09:30:27;1.88;;;0.85;;
70320;SDS011;61127;55.826;37.046;2023-11-22T09:33:09;3.03;;;1.20;;
70320;SDS011;61127;55.826;37.046;2023-11-22T09:35:36;3.03;;;1.17;;
70320;SDS011;61127;55.826;37.046;2023-11-22T09:38:05;4.18;;;1.50;;
70320;SDS011;61127;55.826;37.046;2023-11-22T09:40:44;3.30;;;1.30;;
70320;SDS011;61127;55.826;37.046;2023-11-22T09:43:12;2.30;;;1.05;;
70320;SDS011;61127;55.826;37.046;2023-11-22T09:45:40;2.58;;;1.23;;
70320;SDS011;61127;55.826;37.046;2023-11-22T09:48:24;3.10;;;1.10;;
70320;SDS011;61127;55.826;37.046;2023-11-22T09:53:19;2.65;;;1.08;;
70320;SDS011;61127;55.826;37.046;2023-11-22T09:55:47;2.63;;;1.00;;
70320;SDS011;61127;55.826;37.046;2023-11-22T09:58:13;4.05;;;1.30;;
70320;SDS011;61127;55.826;37.046;2023-11-22T10:00:41;4.07;;;1.25;;
70320;SDS011;61127;55.826;37.046;2023-11-22T10:03:09;2.13;;;1.30;;
70320;SDS011;61127;55.826;37.046;2023-11-22T10:05:35;2.08;;;0.90;;
70320;SDS011;61127;55.826;37.046;2023-11-22T10:08:00;3.22;;;1.05;;
70320;SDS011;61127;55.826;37.046;2023-11-22T10:10:26;3.37;;;1.10;;
70320;SDS011;61127;55.826;37.046;2023-11-22T10:12:55;3.78;;;1.42;;
70320;SDS011;61127;55.826;37.046;2023-11-22T10:15:23;3.63;;;1.27;;
70320;SDS011;61127;55.826;37.046;2023-11-22T10:17:56;5.30;;;1.63;;
70320;SDS011;61127;55.826;37.046;2023-11-22T10:20:23;3.67;;;1.30;;
70320;SDS011;61127;55.826;37.046;2023-11-22T10:22:51;4.10;;;1.63;;
70320;SDS011;61127;55.826;37.046;2023-11-22T10:25:17;4.63;;;1.50;;
70320;SDS011;61127;55.826;37.046;2023-11-22T10:27:45;4.28;;;1.65;;
70320;SDS011;61127;55.826;37.046;2023-11-22T10:30:12;5.28;;;1.80;;
70320;SDS011;61127;55.826;37.046;2023-11-22T10:32:38;5.37;;;1.30;;
70320;SDS011;61127;55.826;37.046;2023-11-22T10:35:05;6.45;;;1.90;;
70320;SDS011;61127;55.826;37.046;2023-11-22T10:37:32;4.82;;;1.83;;
70320;SDS011;61127;55.826;37.046;2023-11-22T10:39:59;3.92;;;1.83;;
70320;SDS011;61127;55.826;37.046;2023-11-22T10:42:24;5.20;;;1.83;;
70320;SDS011;61127;55.826;37.046;2023-11-22T10:44:53;6.22;;;2.15;;
70320;SDS011;61127;55.826;37.046;2023-11-22T10:47:20;6.25;;;2.00;;
70320;SDS011;61127;55.826;37.046;2023-11-22T10:49:46;5.97;;;2.23;;
70320;SDS011;61127;55.826;37.046;2023-11-22T10:52:13;6.63;;;2.75;;
70320;SDS011;61127;55.826;37.046;2023-11-22T10:54:41;6.18;;;2.05;;
70320;SDS011;61127;55.826;37.046;2023-11-22T10:57:09;9.85;;;2.47;;
70320;SDS011;61127;55.826;37.046;2023-11-22T10:59:36;5.53;;;2.25;;
70320;SDS011;61127;55.826;37.046;2023-11-22T11:02:05;7.47;;;2.53;;
70320;SDS011;61127;55.826;37.046;2023-11-22T11:04:34;7.03;;;2.50;;
70320;SDS011;61127;55.826;37.046;2023-11-22T11:07:05;6.35;;;2.80;;
70320;SDS011;61127;55.826;37.046;2023-11-22T11:09:35;7.65;;;2.70;;
70320;SDS011;61127;55.826;37.046;2023-11-22T11:12:02;8.10;;;2.65;;
70320;SDS011;61127;55.826;37.046;2023-11-22T11:14:28;6.53;;;2.30;;
70320;SDS011;61127;55.826;37.046;2023-11-22T11:16:54;7.05;;;2.88;;
70320;SDS011;61127;55.826;37.046;2023-11-22T11:19:21;8.07;;;2.80;;
70320;SDS011;61127;55.826;37.046;2023-11-22T11:21:50;8.88;;;2.58;;
70320;SDS011;61127;55.826;37.046;2023-11-22T11:24:17;10.80;;;3.03;;
70320;SDS011;61127;55.826;37.046;2023-11-22T11:26:50;10.68;;;2.72;;
70320;SDS011;61127;55.826;37.046;2023-11-22T11:29:38;6.30;;;2.40;;
70320;SDS011;61127;55.826;37.046;2023-11-22T11:32:11;8.23;;;2.97;;
70320;SDS011;61127;55.826;37.046;2023-11-22T11:34:48;7.10;;;2.63;;
70320;SDS011;61127;55.826;37.046;2023-11-22T11:37:15;8.27;;;2.55;;
70320;SDS011;61127;55.826;37.046;2023-11-22T11:39:43;8.23;;;2.42;;
70320;SDS011;61127;55.826;37.046;2023-11-22T11:42:12;9.10;;;3.30;;
70320;SDS011;61127;55.826;37.046;2023-11-22T11:44:50;9.88;;;2.95;;
70320;SDS011;61127;55.826;37.046;2023-11-22T11:47:17;9.13;;;3.57;;
70320;SDS011;61127;55.826;37.046;2023-11-22T11:49:50;10.35;;;3.47;;
70320;SDS011;61127;55.826;37.046;2023-11-22T11:52:16;8.52;;;3.03;;
70320;SDS011;61127;55.826;37.046;2023-11-22T11:54:42;7.73;;;2.73;;
70320;SDS011;61127;55.826;37.046;2023-11-22T11:57:17;5.50;;;2.22;;
70320;SDS011;61127;55.826;37.046;2023-11-22T11:59:42;6.88;;;2.47;;
70320;SDS011;61127;55.826;37.046;2023-11-22T12:02:15;7.75;;;2.72;;
70320;SDS011;61127;55.826;37.046;2023-11-22T12:04:44;8.53;;;3.03;;
70320;SDS011;61127;55.826;37.046;2023-11-22T12:07:19;5.80;;;2.45;;
70320;SDS011;61127;55.826;37.046;2023-11-22T12:09:45;8.18;;;2.95;;
70320;SDS011;61127;55.826;37.046;2023-11-22T12:12:13;8.65;;;3.25;;
70320;SDS011;61127;55.826;37.046;2023-11-22T12:14:47;9.93;;;3.30;;
70320;SDS011;61127;55.826;37.046;2023-11-22T12:17:16;7.13;;;2.93;;
70320;SDS011;61127;55.826;37.046;2023-11-22T12:19:42;9.18;;;2.85;;
70320;SDS011;61127;55.826;37.046;2023-11-22T12:22:08;8.57;;;2.60;;
70320;SDS011;61127;55.826;37.046;2023-11-22T12:24:34;8.05;;;2.90;;
70320;SDS011;61127;55.826;37.046;2023-11-22T12:27:00;10.10;;;3.45;;
70320;SDS011;61127;55.826;37.046;2023-11-22T12:29:25;7.28;;;2.95;;
70320;SDS011;61127;55.826;37.046;2023-11-22T12:31:51;8.90;;;2.90;;
70320;SDS011;61127;55.826;37.046;2023-11-22T12:34:22;6.90;;;2.40;;
70320;SDS011;61127;55.826;37.046;2023-11-22T12:36:50;7.60;;;2.53;;
70320;SDS011;61127;55.826;37.046;2023-11-22T12:39:16;7.30;;;2.43;;
70320;SDS011;61127;55.826;37.046;2023-11-22T12:41:47;8.27;;;2.90;;
70320;SDS011;61127;55.826;37.046;2023-11-22T12:44:13;7.00;;;2.80;;
70320;SDS011;61127;55.826;37.046;2023-11-22T12:49:10;7.10;;;2.75;;
70320;SDS011;61127;55.826;37.046;2023-11-22T12:51:36;10.38;;;3.00;;
70320;SDS011;61127;55.826;37.046;2023-11-22T12:54:01;9.57;;;3.37;;
70320;SDS011;61127;55.826;37.046;2023-11-22T12:56:27;6.70;;;2.97;;
70320;SDS011;61127;55.826;37.046;2023-11-22T12:58:54;5.23;;;2.30;;
70320;SDS011;61127;55.826;37.046;2023-11-22T13:01:20;9.45;;;3.10;;
70320;SDS011;61127;55.826;37.046;2023-11-22T13:03:46;9.82;;;3.00;;
70320;SDS011;61127;55.826;37.046;2023-11-22T13:06:12;10.13;;;2.80;;
70320;SDS011;61127;55.826;37.046;2023-11-22T13:08:37;7.05;;;2.90;;
70320;SDS011;61127;55.826;37.046;2023-11-22T13:11:03;7.10;;;2.47;;
70320;SDS011;61127;55.826;37.046;2023-11-22T13:13:29;5.25;;;2.42;;
70320;SDS011;61127;55.826;37.046;2023-11-22T13:15:56;7.50;;;2.63;;
70320;SDS011;61127;55.826;37.046;2023-11-22T13:18:22;5.55;;;2.38;;
70320;SDS011;61127;55.826;37.046;2023-11-22T13:20:48;7.13;;;2.50;;
70320;SDS011;61127;55.826;37.046;2023-11-22T13:23:15;7.68;;;2.90;;
70320;SDS011;61127;55.826;37.046;2023-11-22T13:25:41;6.80;;;2.40;;
70320;SDS011;61127;55.826;37.046;2023-11-22T13:28:07;7.13;;;2.63;;
70320;SDS011;61127;55.826;37.046;2023-11-22T13:30:34;7.30;;;2.37;;
70320;SDS011;61127;55.826;37.046;2023-11-22T13:33:00;7.15;;;2.55;;
70320;SDS011;61127;55.826;37.046;2023-11-22T13:35:26;8.65;;;2.75;;
70320;SDS011;61127;55.826;37.046;2023-11-22T13:37:58;9.90;;;2.80;;
70320;SDS011;61127;55.826;37.046;2023-11-22T13:40:24;8.55;;;3.22;;
70320;SDS011;61127;55.826;37.046;2023-11-22T13:42:52;7.85;;;2.75;;
70320;SDS011;61127;55.826;37.046;2023-11-22T13:45:18;6.63;;;2.15;;
70320;SDS011;61127;55.826;37.046;2023-11-22T13:47:45;9.15;;;2.53;;
70320;SDS011;61127;55.826;37.046;2023-11-22T13:50:13;11.50;;;3.23;;
70320;SDS011;61127;55.826;37.046;2023-11-22T13:52:44;7.53;;;2.90;;
70320;SDS011;61127;55.826;37.046;2023-11-22T13:55:11;9.15;;;2.90;;
70320;SDS011;61127;55.826;37.046;2023-11-22T13:57:38;8.85;;;3.20;;
70320;SDS011;61127;55.826;37.046;2023-11-22T14:00:08;8.65;;;3.20;;
70320;SDS011;61127;55.826;37.046;2023-11-22T14:02:54;6.13;;;2.47;;
70320;SDS011;61127;55.826;37.046;2023-11-22T14:05:23;9.13;;;3.08;;
70320;SDS011;61127;55.826;37.046;2023-11-22T14:07:49;9.02;;;3.05;;
70320;SDS011;61127;55.826;37.046;2023-11-22T14:10:17;9.52;;;3.30;;
70320;SDS011;61127;55.826;37.046;2023-11-22T14:12:44;10.23;;;3.50;;
70320;SDS011;61127;55.826;37.046;2023-11-22T14:15:12;10.37;;;3.27;;
70320;SDS011;61127;55.826;37.046;2023-11-22T14:17:38;10.93;;;3.83;;
70320;SDS011;61127;55.826;37.046;2023-11-22T14:20:05;8.70;;;3.50;;
70320;SDS011;61127;55.826;37.046;2023-11-22T14:22:32;9.65;;;3.25;;
70320;SDS011;61127;55.826;37.046;2023-11-22T14:24:58;10.20;;;3.97;;
70320;SDS011;61127;55.826;37.046;2023-11-22T14:27:30;9.73;;;3.50;;
70320;SDS011;61127;55.826;37.046;2023-11-22T14:29:56;8.82;;;3.58;;
70320;SDS011;61127;55.826;37.046;2023-11-22T14:32:25;10.70;;;3.35;;
70320;SDS011;61127;55.826;37.046;2023-11-22T14:34:51;9.70;;;3.60;;